Time;durP1;ratioP1;P1;durP2;ratioP2;P2;SDS_P1;SDS_P2;PMS_P1;PMS_P2;Temp;Humidity;BMP_temperature;BMP_pressure;BME280_temperature;BME280_humidity;BME280_pressure;Samples;Min_cycle;Max_cycle;Signal;HPM_P1;HPM_P2
2024/01/22 00:00:08;;;;;;;585.78;266.30;;;-6.20;99.90;;;;;;5095980;28;20024;-53
2024/01/22 00:02:39;;;;;;;599.20;277.45;;;-6.20;99.90;;;;;;5095967;28;20046;-53
2024/01/22 00:05:05;;;;;;;639.47;295.10;;;-6.20;99.90;;;;;;5095875;28;20028;-53
2024/01/22 00:07:31;;;;;;;635.28;296.00;;;-6.20;99.90;;;;;;5095598;28;20027;-53
2024/01/22 00:09:57;;;;;;;658.28;303.20;;;-6.30;99.90;;;;;;5095815;28;20028;-53
2024/01/22 00:12:22;;;;;;;664.90;313.60;;;-6.30;99.90;;;;;;5095751;28;20550;-53
2024/01/22 00:14:48;;;;;;;662.08;303.85;;;-6.40;99.90;;;;;;5095724;28;20031;-53
2024/01/22 00:17:14;;;;;;;653.85;308.25;;;-6.40;99.90;;;;;;5095691;28;20032;-53
2024/01/22 00:19:40;;;;;;;639.33;297.52;;;-6.40;99.90;;;;;;5095766;28;20032;-53
2024/01/22 00:22:06;;;;;;;648.60;301.27;;;-6.20;99.90;;;;;;5095639;28;20077;-53
2024/01/22 00:24:32;;;;;;;570.00;259.05;;;-6.20;99.90;;;;;;5095486;28;20028;-53
2024/01/22 00:26:57;;;;;;;514.47;228.05;;;-6.30;99.90;;;;;;5095754;28;20034;-53
2024/01/22 00:29:23;;;;;;;506.40;224.98;;;-6.10;99.90;;;;;;5095712;28;20028;-53
2024/01/22 00:31:49;;;;;;;509.27;223.60;;;-6.30;99.90;;;;;;5102002;28;20066;-53
2024/01/22 00:34:15;;;;;;;488.20;217.48;;;-6.30;99.90;;;;;;5102296;28;20028;-53
2024/01/22 00:36:41;;;;;;;508.63;225.63;;;-6.40;99.90;;;;;;5102524;28;20016;-53
2024/01/22 00:39:07;;;;;;;551.33;246.52;;;-6.40;99.90;;;;;;5102287;28;20062;-53
2024/01/22 00:41:33;;;;;;;551.90;244.30;;;-6.40;99.90;;;;;;5102327;28;20104;-53
2024/01/22 00:43:58;;;;;;;523.55;230.43;;;-6.30;99.90;;;;;;5102218;28;20481;-53
2024/01/22 00:46:24;;;;;;;491.00;218.70;;;-6.30;99.90;;;;;;5102179;28;20028;-53
2024/01/22 00:48:50;;;;;;;492.10;217.02;;;-6.30;99.90;;;;;;5102178;28;20020;-53
2024/01/22 00:51:17;;;;;;;490.95;220.75;;;-6.50;99.90;;;;;;5102312;28;20107;-53
2024/01/22 00:53:42;;;;;;;503.55;222.98;;;-6.50;99.90;;;;;;5101936;28;20035;-53
2024/01/22 00:56:09;;;;;;;540.75;238.23;;;-6.60;99.90;;;;;;5102487;28;20492;-53
2024/01/22 00:58:35;;;;;;;527.72;237.40;;;-6.60;99.90;;;;;;5102063;28;20048;-53
2024/01/22 01:01:01;;;;;;;538.75;238.43;;;-6.70;99.90;;;;;;5102129;28;20017;-53
2024/01/22 01:03:27;;;;;;;532.53;235.80;;;-6.70;99.90;;;;;;5102025;28;20040;-53
2024/01/22 01:05:52;;;;;;;536.13;231.80;;;-6.70;99.90;;;;;;5102109;28;20027;-53
2024/01/22 01:08:18;;;;;;;543.65;236.50;;;-6.70;99.90;;;;;;5101591;28;20028;-54
2024/01/22 01:10:44;;;;;;;532.80;233.52;;;-6.60;99.90;;;;;;5102163;28;20384;-53
2024/01/22 01:13:10;;;;;;;529.50;235.38;;;-6.70;99.90;;;;;;5101940;28;20107;-53
2024/01/22 01:15:36;;;;;;;518.13;233.43;;;-6.60;99.90;;;;;;5101965;28;20020;-53
2024/01/22 01:18:02;;;;;;;541.80;238.35;;;-6.60;99.90;;;;;;5101638;28;20115;-53
2024/01/22 01:20:27;;;;;;;573.35;257.65;;;-6.60;99.90;;;;;;5101947;28;20359;-53
2024/01/22 01:22:53;;;;;;;551.08;240.07;;;-6.70;99.90;;;;;;5101488;28;20028;-53
2024/01/22 01:25:19;;;;;;;523.05;227.05;;;-6.70;99.90;;;;;;5101872;28;20067;-53
2024/01/22 01:27:45;;;;;;;538.90;233.88;;;-6.60;99.90;;;;;;5101846;28;20077;-53
2024/01/22 01:30:12;;;;;;;531.33;229.43;;;-6.60;99.90;;;;;;5102087;28;20054;-53
2024/01/22 01:32:38;;;;;;;542.42;233.73;;;-6.60;99.90;;;;;;5101795;28;20099;-53
2024/01/22 01:35:04;;;;;;;524.10;229.65;;;-6.70;99.90;;;;;;5101841;28;20039;-53
2024/01/22 01:37:30;;;;;;;489.23;218.27;;;-6.70;99.90;;;;;;5101663;28;20028;-53
2024/01/22 01:39:56;;;;;;;467.10;205.27;;;-6.80;99.90;;;;;;5101735;28;20449;-53
2024/01/22 01:42:22;;;;;;;449.38;193.63;;;-6.90;99.90;;;;;;5098540;28;20071;-53
2024/01/22 01:44:50;;;;;;;453.70;196.82;;;-6.90;99.90;;;;;;5098546;28;20024;-53
2024/01/22 01:47:17;;;;;;;439.88;187.90;;;-7.00;99.90;;;;;;5098401;28;20030;-53
2024/01/22 01:49:44;;;;;;;442.17;194.55;;;-7.10;99.90;;;;;;5098426;28;20028;-53
2024/01/22 01:52:11;;;;;;;449.15;196.60;;;-7.10;99.90;;;;;;5098315;28;20093;-53
2024/01/22 01:54:38;;;;;;;456.25;196.20;;;-7.10;99.90;;;;;;5098328;28;20028;-53
2024/01/22 01:57:06;;;;;;;446.75;194.48;;;-7.10;99.90;;;;;;5098281;28;20028;-53
2024/01/22 01:59:35;;;;;;;451.08;196.63;;;-7.00;99.90;;;;;;5098163;28;20077;-53
2024/01/22 02:02:02;;;;;;;454.42;196.40;;;-7.00;99.90;;;;;;5098157;28;20046;-53
2024/01/22 02:04:29;;;;;;;449.55;195.30;;;-6.90;99.90;;;;;;5097963;28;20040;-53
2024/01/22 02:06:56;;;;;;;447.20;198.13;;;-7.00;99.90;;;;;;5097900;28;20031;-53
2024/01/22 02:09:22;;;;;;;459.95;200.48;;;-7.10;99.90;;;;;;5097917;28;20032;-53
2024/01/22 02:11:47;;;;;;;462.70;192.82;;;-7.10;99.90;;;;;;5098027;28;20051;-53
2024/01/22 02:14:13;;;;;;;471.02;199.98;;;-7.10;99.90;;;;;;5097969;28;20028;-53
2024/01/22 02:16:39;;;;;;;469.02;197.52;;;-7.20;99.90;;;;;;5097823;28;20028;-53
2024/01/22 02:19:05;;;;;;;478.65;209.00;;;-7.20;99.90;;;;;;5097641;28;20301;-53
2024/01/22 02:21:31;;;;;;;453.63;197.65;;;-7.20;99.90;;;;;;5097721;28;20077;-53
2024/01/22 02:23:57;;;;;;;497.85;211.52;;;-7.20;99.90;;;;;;5097642;28;20036;-53
2024/01/22 02:26:22;;;;;;;551.45;235.13;;;-7.20;99.90;;;;;;5097807;28;20024;-53
2024/01/22 02:28:48;;;;;;;608.63;252.77;;;-7.00;99.90;;;;;;5097669;28;20063;-53
2024/01/22 02:31:15;;;;;;;622.25;265.10;;;-6.90;99.90;;;;;;5097672;28;20032;-53
2024/01/22 02:33:41;;;;;;;843.10;331.95;;;-6.80;99.90;;;;;;5097468;28;20028;-53
2024/01/22 02:36:07;;;;;;;859.50;340.75;;;-6.70;99.90;;;;;;5097606;28;20409;-53
2024/01/22 02:38:32;;;;;;;876.13;335.85;;;-6.80;99.90;;;;;;5097602;28;20051;-53
2024/01/22 02:40:58;;;;;;;683.63;284.33;;;-6.90;99.90;;;;;;5097381;28;20027;-53
2024/01/22 02:43:30;;;;;;;794.88;326.00;;;-6.80;99.90;;;;;;5096210;28;20032;-53
2024/01/22 02:45:56;;;;;;;827.72;341.75;;;-6.90;99.90;;;;;;5096953;28;20085;-53
2024/01/22 02:48:22;;;;;;;847.10;343.67;;;-6.90;99.90;;;;;;5097316;28;20027;-53
2024/01/22 02:50:48;;;;;;;714.67;305.48;;;-6.90;99.90;;;;;;5097209;28;20028;-53
2024/01/22 02:53:13;;;;;;;709.08;302.95;;;-6.90;99.90;;;;;;5096822;28;20024;-53
2024/01/22 02:55:39;;;;;;;629.70;282.35;;;-6.90;99.90;;;;;;5096870;28;20103;-53
2024/01/22 02:58:05;;;;;;;603.95;253.80;;;-6.90;99.90;;;;;;5097009;28;20024;-53
2024/01/22 03:00:31;;;;;;;586.63;254.55;;;-6.90;99.90;;;;;;5096997;28;20052;-53
2024/01/22 03:02:57;;;;;;;551.45;243.10;;;-7.00;99.90;;;;;;5096796;28;20032;-53
2024/01/22 03:05:23;;;;;;;576.17;243.38;;;-7.00;99.90;;;;;;5096819;28;20020;-53
2024/01/22 03:07:48;;;;;;;584.83;251.27;;;-7.00;99.90;;;;;;5096767;28;20077;-53
2024/01/22 03:10:14;;;;;;;573.25;245.65;;;-7.10;99.90;;;;;;5097052;28;20059;-53
2024/01/22 03:12:42;;;;;;;567.42;241.38;;;-7.10;99.90;;;;;;5096500;28;20036;-53
2024/01/22 03:15:08;;;;;;;564.85;237.45;;;-7.20;99.90;;;;;;5096797;28;20039;-53
2024/01/22 03:17:34;;;;;;;531.58;227.95;;;-7.20;99.90;;;;;;5096464;28;20032;-53
2024/01/22 03:20:00;;;;;;;537.80;228.68;;;-7.10;99.90;;;;;;5096658;28;20431;-53
2024/01/22 03:22:26;;;;;;;538.35;223.13;;;-7.20;99.90;;;;;;5096435;28;20036;-53
2024/01/22 03:24:51;;;;;;;510.63;216.43;;;-7.20;99.90;;;;;;5096517;28;20466;-53
2024/01/22 03:27:17;;;;;;;501.70;207.55;;;-7.20;99.90;;;;;;5096428;28;20077;-53
2024/01/22 03:29:43;;;;;;;605.58;250.98;;;-7.20;99.90;;;;;;5096871;28;20024;-53
2024/01/22 03:32:09;;;;;;;595.22;246.50;;;-7.30;99.90;;;;;;5096334;28;20070;-53
2024/01/22 03:34:35;;;;;;;459.63;181.32;;;-7.20;99.90;;;;;;5096376;28;20028;-53
2024/01/22 03:37:00;;;;;;;416.10;168.93;;;-7.40;99.90;;;;;;5096586;28;20508;-53
2024/01/22 03:39:26;;;;;;;396.10;165.80;;;-7.50;99.90;;;;;;5096364;28;20034;-53
2024/01/22 03:41:52;;;;;;;387.77;160.43;;;-7.50;99.90;;;;;;5096063;28;20032;-53
2024/01/22 03:44:18;;;;;;;401.60;165.38;;;-7.60;99.90;;;;;;5096204;28;20530;-53
2024/01/22 03:46:44;;;;;;;369.52;152.55;;;-7.50;99.90;;;;;;5095987;28;20107;-53
2024/01/22 03:49:10;;;;;;;353.80;148.52;;;-7.40;99.90;;;;;;5096092;28;20032;-53
2024/01/22 03:51:36;;;;;;;338.80;146.23;;;-7.50;99.90;;;;;;5096069;28;20031;-53
2024/01/22 03:54:02;;;;;;;348.40;147.07;;;-7.50;99.90;;;;;;5096075;28;20032;-53
2024/01/22 03:56:28;;;;;;;348.52;145.32;;;-7.50;99.90;;;;;;5095830;28;20024;-53
2024/01/22 03:58:54;;;;;;;350.50;145.57;;;-7.50;99.90;;;;;;5095888;28;20527;-53
2024/01/22 04:01:23;;;;;;;338.52;142.57;;;-7.50;99.90;;;;;;5095850;28;20032;-53
2024/01/22 04:03:51;;;;;;;356.05;148.30;;;-7.30;99.90;;;;;;5095894;28;20101;-53
2024/01/22 04:06:17;;;;;;;397.55;163.07;;;-7.30;99.90;;;;;;5095269;28;20024;-53
2024/01/22 04:08:43;;;;;;;380.67;159.70;;;-7.30;99.90;;;;;;5095684;28;20484;-52
2024/01/22 04:11:09;;;;;;;430.45;173.45;;;-7.20;99.90;;;;;;5095772;28;20121;-53
2024/01/22 04:13:37;;;;;;;454.80;180.32;;;-7.40;99.90;;;;;;5095511;28;20056;-53
2024/01/22 04:16:03;;;;;;;431.17;176.55;;;-7.50;99.90;;;;;;5096093;28;20020;-53
2024/01/22 04:18:29;;;;;;;382.38;157.55;;;-7.50;99.90;;;;;;5095673;28;20035;-53
2024/01/22 04:20:54;;;;;;;390.17;160.65;;;-7.60;99.90;;;;;;5095850;28;20031;-53
2024/01/22 04:23:20;;;;;;;387.75;156.90;;;-7.60;99.90;;;;;;5095520;28;20024;-53
2024/01/22 04:25:46;;;;;;;409.33;161.00;;;-7.70;99.90;;;;;;5095567;28;20470;-53
2024/01/22 04:28:14;;;;;;;400.05;165.68;;;-7.70;99.90;;;;;;5095409;28;20043;-53
2024/01/22 04:30:40;;;;;;;418.98;172.23;;;-7.60;99.90;;;;;;5095587;28;20020;-53
2024/01/22 04:33:06;;;;;;;436.77;174.93;;;-7.60;99.90;;;;;;5095598;28;20381;-53
2024/01/22 04:35:32;;;;;;;443.45;176.10;;;-7.50;99.90;;;;;;5095526;28;20106;-53
2024/01/22 04:37:58;;;;;;;451.40;178.55;;;-7.60;99.90;;;;;;5095539;28;20051;-53
2024/01/22 04:40:23;;;;;;;469.88;187.65;;;-7.50;99.90;;;;;;5095470;28;20032;-53
2024/01/22 04:42:49;;;;;;;416.85;164.98;;;-7.60;99.90;;;;;;5095307;28;20134;-53
2024/01/22 04:45:15;;;;;;;408.15;166.30;;;-7.70;99.90;;;;;;5095436;28;20024;-53
2024/01/22 04:47:41;;;;;;;424.80;173.75;;;-7.70;99.90;;;;;;5095329;28;20031;-53
2024/01/22 04:50:07;;;;;;;433.73;173.65;;;-7.70;99.90;;;;;;5094196;28;20028;-53
2024/01/22 04:52:33;;;;;;;436.65;178.43;;;-7.70;99.90;;;;;;5095400;28;20020;-53
2024/01/22 04:54:59;;;;;;;416.02;164.48;;;-7.80;99.90;;;;;;5095358;28;20058;-53
2024/01/22 04:57:25;;;;;;;407.35;162.75;;;-7.80;99.90;;;;;;5095329;28;20031;-53
2024/01/22 04:59:51;;;;;;;387.35;161.45;;;-7.60;99.90;;;;;;5095341;28;20036;-53
2024/01/22 05:02:22;;;;;;;369.10;152.45;;;-7.60;99.90;;;;;;5095297;28;20120;-53
2024/01/22 05:04:48;;;;;;;360.42;148.50;;;-7.60;99.90;;;;;;5095182;28;20028;-53
2024/01/22 05:07:14;;;;;;;340.30;144.63;;;-7.60;99.90;;;;;;5095006;28;20020;-53
2024/01/22 05:09:40;;;;;;;385.48;151.07;;;-7.60;99.90;;;;;;5095227;28;20024;-53
2024/01/22 05:12:06;;;;;;;382.05;154.02;;;-7.60;99.90;;;;;;5095154;28;20385;-53
2024/01/22 05:14:32;;;;;;;404.23;162.95;;;-7.70;99.90;;;;;;5095035;28;20063;-53
2024/01/22 05:16:57;;;;;;;416.17;168.45;;;-7.60;99.90;;;;;;5096930;28;20028;-53
2024/01/22 05:19:23;;;;;;;393.42;161.35;;;-7.60;99.90;;;;;;5099141;28;20032;-53
2024/01/22 05:21:50;;;;;;;374.08;152.98;;;-7.60;99.90;;;;;;5098845;28;20016;-53
2024/01/22 05:24:16;;;;;;;380.40;153.85;;;-7.70;99.90;;;;;;5098848;28;20028;-53
2024/01/22 05:26:42;;;;;;;404.90;156.95;;;-7.70;99.90;;;;;;5098743;28;20446;-53
2024/01/22 05:29:08;;;;;;;378.33;152.52;;;-7.70;99.90;;;;;;5098749;28;20063;-53
2024/01/22 05:31:34;;;;;;;384.73;156.05;;;-7.60;99.90;;;;;;5098675;28;20020;-53
2024/01/22 05:34:00;;;;;;;414.67;171.63;;;-7.60;99.90;;;;;;5098573;28;20032;-53
2024/01/22 05:36:26;;;;;;;423.42;174.85;;;-7.60;99.90;;;;;;5098534;28;20024;-53
2024/01/22 05:38:52;;;;;;;381.10;155.65;;;-7.60;99.90;;;;;;5098588;28;20423;-53
2024/01/22 05:41:17;;;;;;;371.13;152.73;;;-7.50;99.90;;;;;;5097252;28;20419;-53
2024/01/22 05:43:43;;;;;;;385.23;163.10;;;-7.50;99.90;;;;;;5098413;28;20024;-53
2024/01/22 05:46:09;;;;;;;365.27;148.85;;;-7.50;99.90;;;;;;5098223;28;20039;-53
2024/01/22 05:48:35;;;;;;;340.00;139.50;;;-7.50;99.90;;;;;;5098389;28;20028;-53
2024/01/22 05:51:01;;;;;;;325.27;138.07;;;-7.50;99.90;;;;;;5098457;28;20055;-53
2024/01/22 05:53:27;;;;;;;322.45;137.40;;;-7.60;99.90;;;;;;5097801;28;20424;-53
2024/01/22 05:55:53;;;;;;;310.05;130.93;;;-7.60;99.90;;;;;;5098209;28;20028;-53
2024/01/22 05:58:18;;;;;;;284.55;124.13;;;-7.50;99.90;;;;;;5098182;28;20103;-53
2024/01/22 06:00:44;;;;;;;301.60;129.60;;;-7.60;99.90;;;;;;5097675;28;20075;-53
2024/01/22 06:03:10;;;;;;;306.63;127.53;;;-7.70;99.90;;;;;;5097684;28;20028;-53
2024/01/22 06:05:36;;;;;;;299.08;125.63;;;-7.70;99.90;;;;;;5097935;28;20027;-53
2024/01/22 06:08:04;;;;;;;305.23;128.75;;;-7.60;99.90;;;;;;5097947;28;20028;-53
2024/01/22 06:10:30;;;;;;;302.70;128.77;;;-7.50;99.90;;;;;;5097442;28;20036;-53
2024/01/22 06:12:56;;;;;;;315.38;132.82;;;-7.80;99.90;;;;;;5097767;28;20465;-53
2024/01/22 06:15:22;;;;;;;303.58;128.85;;;-7.70;99.90;;;;;;5097908;28;20027;-53
2024/01/22 06:17:49;;;;;;;352.17;136.40;;;-7.70;99.90;;;;;;5097675;28;20043;-53
2024/01/22 06:20:15;;;;;;;333.42;138.93;;;-7.80;99.90;;;;;;5097803;28;20431;-53
2024/01/22 06:22:41;;;;;;;364.83;150.52;;;-7.80;99.90;;;;;;5097303;28;20512;-53
2024/01/22 06:25:07;;;;;;;365.10;147.48;;;-7.90;99.90;;;;;;5095810;28;20060;-53
2024/01/22 06:27:33;;;;;;;338.90;143.35;;;-7.80;99.90;;;;;;5097028;28;20458;-53
2024/01/22 06:29:59;;;;;;;365.70;153.15;;;-7.60;99.90;;;;;;5097256;28;20032;-53
2024/01/22 06:32:26;;;;;;;371.90;153.18;;;-7.60;99.90;;;;;;5096228;28;20073;-53
2024/01/22 06:34:53;;;;;;;387.05;167.18;;;-7.40;99.90;;;;;;5094349;28;21189;-53
2024/01/22 06:37:20;;;;;;;389.52;169.35;;;-7.60;99.90;;;;;;5097183;28;20032;-53
2024/01/22 06:39:45;;;;;;;404.73;169.43;;;-7.60;99.90;;;;;;5097313;28;20028;-53
2024/01/22 06:42:11;;;;;;;383.13;165.15;;;-7.60;99.90;;;;;;5097265;28;20099;-53
2024/01/22 06:44:37;;;;;;;383.30;163.80;;;-7.40;99.90;;;;;;5090280;28;20060;-53
2024/01/22 06:47:03;;;;;;;380.75;165.95;;;-7.40;99.90;;;;;;5096672;28;20097;-53
2024/01/22 06:49:29;;;;;;;382.00;161.90;;;-7.40;99.90;;;;;;5094827;28;20028;-53
2024/01/22 06:51:55;;;;;;;384.63;160.93;;;-7.30;99.90;;;;;;5096886;28;20055;-53
2024/01/22 06:54:21;;;;;;;369.08;156.73;;;-7.20;99.90;;;;;;5097069;28;20024;-53
2024/01/22 06:56:47;;;;;;;385.48;163.27;;;-7.00;99.90;;;;;;5096752;28;20093;-53
2024/01/22 06:59:13;;;;;;;366.85;154.15;;;-6.30;99.90;;;;;;5096862;28;20046;-53
2024/01/22 07:01:39;;;;;;;378.35;154.48;;;-5.50;99.90;;;;;;5096489;28;20024;-53
2024/01/22 07:04:04;;;;;;;412.15;168.07;;;-4.80;99.90;;;;;;5095125;28;20510;-53
2024/01/22 07:06:30;;;;;;;470.17;177.68;;;-4.50;99.90;;;;;;5095316;28;20474;-53
2024/01/22 07:08:56;;;;;;;397.75;175.50;;;-3.50;99.90;;;;;;5094653;28;20035;-53
2024/01/22 07:11:22;;;;;;;382.52;163.65;;;-2.90;99.90;;;;;;5097138;28;20075;-53
2024/01/22 07:13:48;;;;;;;375.23;164.73;;;-2.20;99.90;;;;;;5094690;28;20052;-53
2024/01/22 07:16:14;;;;;;;393.80;172.65;;;-1.60;99.90;;;;;;5096817;28;20036;-54
2024/01/22 07:18:40;;;;;;;395.58;173.18;;;-1.60;96.70;;;;;;5096540;28;20030;-53
2024/01/22 07:21:06;;;;;;;384.65;168.48;;;-1.30;92.20;;;;;;5096514;28;20102;-53
2024/01/22 07:23:33;;;;;;;304.35;138.82;;;-1.50;89.70;;;;;;5096309;28;20059;-53
2024/01/22 07:25:59;;;;;;;335.58;144.48;;;-0.70;87.70;;;;;;5096778;28;20107;-53
2024/01/22 07:28:25;;;;;;;320.23;141.95;;;-0.60;80.40;;;;;;5096424;28;20030;-53
2024/01/22 07:30:50;;;;;;;334.35;147.43;;;-0.40;81.10;;;;;;5094700;28;20127;-53
2024/01/22 07:33:16;;;;;;;391.95;177.63;;;0.30;80.10;;;;;;5087757;28;20043;-53
2024/01/22 07:35:42;;;;;;;437.58;202.10;;;0.50;76.50;;;;;;5096145;28;20020;-53
2024/01/22 07:38:08;;;;;;;423.63;192.02;;;0.60;73.80;;;;;;5096212;28;20038;-53
2024/01/22 07:40:34;;;;;;;400.70;184.73;;;0.90;73.90;;;;;;5095035;28;20032;-53
2024/01/22 07:43:00;;;;;;;418.05;194.30;;;1.20;72.70;;;;;;5096041;28;20035;-53
2024/01/22 07:45:26;;;;;;;417.02;190.88;;;1.50;70.80;;;;;;5095887;28;20024;-54
2024/01/22 07:47:51;;;;;;;404.75;190.02;;;2.10;66.90;;;;;;5095833;28;20062;-54
2024/01/22 07:50:20;;;;;;;351.33;168.50;;;2.70;64.10;;;;;;5095568;28;20016;-54
2024/01/22 07:52:47;;;;;;;375.50;176.80;;;3.20;60.20;;;;;;5094480;28;20023;-53
2024/01/22 07:55:16;;;;;;;377.67;178.63;;;3.70;57.40;;;;;;5094758;28;20032;-53
2024/01/22 07:57:42;;;;;;;412.00;192.90;;;3.10;57.60;;;;;;5095773;28;20044;-54
2024/01/22 08:00:11;;;;;;;417.95;197.25;;;2.30;58.80;;;;;;5096225;28;20050;-53
2024/01/22 08:02:40;;;;;;;397.38;187.77;;;2.70;58.80;;;;;;5094644;28;20028;-54
2024/01/22 08:05:07;;;;;;;410.52;196.95;;;3.00;60.30;;;;;;5095284;28;20028;-54
2024/01/22 08:07:36;;;;;;;402.02;194.02;;;3.20;57.60;;;;;;5095348;28;20039;-54
2024/01/22 08:10:01;;;;;;;379.83;184.07;;;3.20;58.60;;;;;;5093747;28;20173;-54
2024/01/22 08:12:27;;;;;;;384.33;183.93;;;3.60;57.90;;;;;;5095396;28;20051;-54
2024/01/22 08:14:53;;;;;;;382.50;187.70;;;5.00;53.80;;;;;;5094169;28;20472;-54
2024/01/22 08:17:19;;;;;;;381.85;187.43;;;4.00;53.00;;;;;;5095013;28;20044;-54
2024/01/22 08:19:45;;;;;;;361.88;179.48;;;3.10;56.40;;;;;;5095516;28;20032;-54
2024/01/22 08:22:11;;;;;;;374.10;181.07;;;3.20;57.30;;;;;;5095961;28;20028;-54
2024/01/22 08:24:37;;;;;;;368.77;176.00;;;3.20;54.70;;;;;;5093297;28;20130;-54
2024/01/22 08:27:03;;;;;;;370.45;174.60;;;3.90;54.40;;;;;;5095063;28;20031;-54
2024/01/22 08:29:29;;;;;;;350.88;169.57;;;3.00;55.80;;;;;;5095724;28;20028;-54
2024/01/22 08:31:55;;;;;;;331.73;162.13;;;3.50;58.90;;;;;;5095345;28;20024;-54
2024/01/22 08:34:21;;;;;;;349.67;170.50;;;3.70;56.60;;;;;;5093631;28;20032;-54
2024/01/22 08:36:47;;;;;;;365.90;174.93;;;3.40;56.40;;;;;;5093737;28;20020;-54
2024/01/22 08:39:13;;;;;;;346.55;170.07;;;3.40;57.20;;;;;;5094750;28;20039;-54
2024/01/22 08:41:38;;;;;;;348.48;171.57;;;4.40;56.50;;;;;;5095049;28;20170;-54
2024/01/22 08:44:05;;;;;;;357.35;178.02;;;4.90;56.10;;;;;;5078810;28;20025;-54
2024/01/22 08:46:32;;;;;;;362.15;178.57;;;5.40;52.80;;;;;;5074881;28;20021;-54
2024/01/22 08:48:58;;;;;;;358.17;182.60;;;4.70;56.20;;;;;;5083739;28;20481;-54
2024/01/22 08:51:24;;;;;;;367.17;183.20;;;4.80;55.90;;;;;;5096344;28;20024;-54
2024/01/22 08:53:50;;;;;;;342.17;170.90;;;5.50;55.90;;;;;;5099231;28;20077;-54
2024/01/22 08:56:16;;;;;;;370.23;186.68;;;5.50;54.80;;;;;;5098901;28;20103;-54
2024/01/22 08:58:42;;;;;;;350.65;177.73;;;6.00;51.20;;;;;;5099105;28;20042;-54
2024/01/22 09:01:08;;;;;;;350.55;173.90;;;5.30;54.30;;;;;;5099036;28;20078;-54
2024/01/22 09:03:34;;;;;;;336.88;172.82;;;6.10;50.00;;;;;;5098729;28;20032;-54
2024/01/22 09:06:00;;;;;;;317.05;164.98;;;5.20;51.80;;;;;;5099156;28;20025;-54
2024/01/22 09:08:26;;;;;;;322.77;158.13;;;5.80;51.80;;;;;;5087432;28;20037;-54
2024/01/22 09:10:52;;;;;;;311.58;160.55;;;6.00;52.10;;;;;;5097639;28;20050;-54
2024/01/22 09:13:19;;;;;;;306.55;154.20;;;6.00;49.90;;;;;;5098864;28;20139;-54
2024/01/22 09:15:45;;;;;;;314.25;160.77;;;6.40;51.40;;;;;;5097563;28;20035;-54
2024/01/22 09:18:11;;;;;;;327.63;167.15;;;6.50;50.70;;;;;;5098082;28;20044;-54
2024/01/22 09:20:37;;;;;;;315.38;163.45;;;6.40;51.10;;;;;;5098292;28;20127;-54
2024/01/22 09:23:03;;;;;;;329.08;167.85;;;6.50;50.30;;;;;;5097888;28;20052;-54
2024/01/22 09:25:28;;;;;;;314.85;161.48;;;6.90;52.80;;;;;;5097417;28;20085;-54
2024/01/22 09:27:54;;;;;;;327.60;161.73;;;7.50;47.40;;;;;;5096611;28;20044;-54
2024/01/22 09:30:20;;;;;;;293.88;149.93;;;7.20;47.40;;;;;;5097002;28;20023;-54
2024/01/22 09:32:46;;;;;;;319.20;162.48;;;7.70;47.00;;;;;;5097875;28;20052;-54
2024/01/22 09:35:14;;;;;;;327.60;160.77;;;7.70;47.50;;;;;;5097316;28;20100;-54
2024/01/22 09:37:40;;;;;;;288.02;147.88;;;7.90;47.20;;;;;;5097485;28;20040;-54
2024/01/22 09:40:10;;;;;;;279.15;145.63;;;7.90;46.40;;;;;;5095147;28;20028;-54
2024/01/22 09:42:39;;;;;;;265.95;143.02;;;8.30;48.10;;;;;;5086412;28;20036;-54
2024/01/22 09:45:08;;;;;;;270.85;139.80;;;7.80;49.60;;;;;;5098199;28;20111;-54
2024/01/22 09:47:35;;;;;;;265.60;134.18;;;7.60;48.60;;;;;;5097908;28;20371;-54
2024/01/22 09:50:02;;;;;;;251.75;131.32;;;7.90;50.70;;;;;;5097819;28;20058;-54
2024/01/22 09:52:31;;;;;;;240.93;126.80;;;7.90;47.90;;;;;;5098126;28;20470;-54
2024/01/22 09:54:58;;;;;;;233.27;122.82;;;8.40;47.30;;;;;;5097865;28;20162;-54
2024/01/22 09:57:27;;;;;;;235.57;122.60;;;7.80;47.20;;;;;;5094253;28;20077;-54
2024/01/22 09:59:53;;;;;;;224.20;124.53;;;7.80;48.80;;;;;;5088401;28;20044;-55
2024/01/22 10:02:20;;;;;;;231.20;124.18;;;8.20;47.40;;;;;;5083416;28;20141;-54
2024/01/22 10:04:46;;;;;;;231.88;122.53;;;8.00;48.20;;;;;;5097090;28;20074;-54
2024/01/22 10:07:14;;;;;;;226.88;120.32;;;7.90;48.40;;;;;;5092048;28;20032;-54
2024/01/22 10:09:41;;;;;;;241.35;127.53;;;8.40;48.10;;;;;;5091415;28;20040;-55
2024/01/22 10:12:08;;;;;;;225.55;125.53;;;8.40;47.60;;;;;;5098183;28;20032;-54
2024/01/22 10:14:35;;;;;;;235.35;123.72;;;7.90;47.80;;;;;;5098236;28;20024;-54
2024/01/22 10:17:20;;;;;;;218.35;118.55;;;8.00;49.20;;;;;;5092130;28;20050;-55
2024/01/22 10:19:49;;;;;;;237.30;123.38;;;8.30;48.00;;;;;;5089485;28;20086;-54
2024/01/22 10:22:24;;;;;;;229.82;121.78;;;8.40;48.50;;;;;;5097793;28;20024;-54
2024/01/22 10:25:02;;;;;;;235.43;121.95;;;9.10;48.30;;;;;;5093763;28;20034;-54
2024/01/22 10:27:28;;;;;;;244.10;125.00;;;8.90;45.90;;;;;;5095279;28;20105;-54
2024/01/22 10:30:12;;;;;;;230.45;123.75;;;8.80;46.20;;;;;;5096998;28;20024;-54
2024/01/22 10:32:38;;;;;;;222.80;118.03;;;9.10;46.20;;;;;;5094409;28;20031;-54
2024/01/22 10:35:04;;;;;;;207.15;111.47;;;8.80;45.90;;;;;;5096783;28;20020;-54
2024/01/22 10:37:31;;;;;;;216.20;108.30;;;8.90;46.20;;;;;;5096597;28;20086;-54
2024/01/22 10:40:08;;;;;;;206.10;106.47;;;9.40;45.40;;;;;;5096350;28;20035;-54
2024/01/22 10:42:34;;;;;;;183.07;99.90;;;9.60;45.80;;;;;;5094319;28;20481;-54
2024/01/22 10:45:01;;;;;;;185.65;99.47;;;9.80;43.00;;;;;;5097738;28;20178;-54
2024/01/22 10:47:30;;;;;;;170.98;92.95;;;9.60;44.80;;;;;;5096994;28;20209;-54
2024/01/22 10:49:57;;;;;;;174.82;93.20;;;10.20;41.90;;;;;;5096857;28;20393;-54
2024/01/22 10:52:25;;;;;;;173.18;94.50;;;9.80;41.50;;;;;;5096820;28;20055;-54
2024/01/22 10:54:51;;;;;;;172.00;89.95;;;9.70;43.70;;;;;;5093436;28;20024;-54
2024/01/22 10:57:35;;;;;;;172.25;88.63;;;9.90;43.50;;;;;;5092234;28;20035;-54
2024/01/22 11:00:06;;;;;;;162.07;83.20;;;10.50;40.80;;;;;;5096809;28;20374;-54
2024/01/22 11:02:34;;;;;;;151.77;82.00;;;10.30;41.10;;;;;;5096411;28;20130;-54
2024/01/22 11:05:06;;;;;;;136.85;73.10;;;10.20;40.30;;;;;;5095981;28;20031;-54
2024/01/22 11:07:36;;;;;;;150.93;76.38;;;10.70;40.20;;;;;;5095218;28;20051;-54
2024/01/22 11:10:02;;;;;;;134.25;67.38;;;10.90;42.80;;;;;;5096154;28;20035;-54
2024/01/22 11:12:45;;;;;;;119.55;63.85;;;10.90;40.10;;;;;;5096239;28;20494;-54
2024/01/22 11:15:11;;;;;;;131.00;65.03;;;11.50;38.10;;;;;;5094273;28;20036;-54
2024/01/22 11:21:42;;;;;;;133.45;68.43;;;11.40;37.50;;;;;;5074103;28;20528;-54
2024/01/22 11:24:16;;;;;;;120.80;62.75;;;11.70;37.80;;;;;;5095733;28;20054;-54
2024/01/22 11:27:00;;;;;;;107.53;56.22;;;11.90;35.20;;;;;;5095938;28;20021;-54
2024/01/22 11:29:28;;;;;;;124.15;63.15;;;11.30;36.00;;;;;;5096229;28;20032;-55
2024/01/22 11:31:56;;;;;;;122.63;64.28;;;11.50;37.30;;;;;;5095579;28;20024;-55
2024/01/22 11:34:40;;;;;;;130.00;59.78;;;11.20;37.20;;;;;;5095805;28;20425;-54
2024/01/22 11:37:08;;;;;;;125.93;64.28;;;11.90;37.30;;;;;;5095447;28;20024;-55
2024/01/22 11:39:39;;;;;;;118.22;60.92;;;11.70;35.80;;;;;;5094923;28;20020;-55
2024/01/22 11:42:22;;;;;;;112.18;59.10;;;11.60;34.90;;;;;;5096176;28;20020;-54
2024/01/22 11:44:50;;;;;;;102.13;57.28;;;10.70;37.40;;;;;;5095443;28;20024;-54
2024/01/22 11:47:17;;;;;;;121.95;62.97;;;11.60;36.40;;;;;;5094317;28;20040;-54
2024/01/22 11:49:43;;;;;;;111.45;61.50;;;11.40;36.40;;;;;;5086678;28;20066;-55
2024/01/22 11:52:12;;;;;;;114.47;61.95;;;11.80;36.00;;;;;;5108711;28;20027;-55
2024/01/22 11:54:51;;;;;;;109.88;59.00;;;11.30;36.80;;;;;;5083258;28;20031;-54
2024/01/22 11:57:18;;;;;;;117.25;59.28;;;11.30;37.30;;;;;;5089737;28;20043;-55
2024/01/22 12:00:05;;;;;;;94.95;54.78;;;11.50;35.10;;;;;;5081557;28;20028;-54
2024/01/22 12:02:44;;;;;;;112.50;56.75;;;11.60;34.70;;;;;;5088431;28;20039;-55
2024/01/22 12:05:17;;;;;;;111.75;58.30;;;12.30;35.20;;;;;;5096095;28;20028;-55
2024/01/22 12:07:45;;;;;;;116.85;60.67;;;12.60;33.10;;;;;;5095750;28;20032;-55
2024/01/22 12:10:26;;;;;;;108.57;59.08;;;12.30;34.30;;;;;;5095398;28;20063;-54
2024/01/22 12:12:57;;;;;;;120.60;61.90;;;12.40;33.90;;;;;;5094861;28;20547;-55